Weather observations for the past three days for
Grand Marais, The Bay of Grand Marais
| Date | Time (cdt) | Wind (kph) | Vis. (km) | Weather | Sky Cond. | Temperature (ºC) | Relative Humidity | Wind Chill (°C) | Heat Index (°C) | Pressure | Precipitation (cm) | ||||||
|---|---|---|---|---|---|---|---|---|---|---|---|---|---|---|---|---|---|
| Air | Dwpt | 6 hour | altimeter (cm) | sea level (mb) | 1 hr | 3 hr | 6 hr | ||||||||||
| Max. | Min. | ||||||||||||||||
| 05 | 16:56 | NW 13 | 0.00 | NULL | NULL | 5.6 | -6.7 | 41% | 3 | 75.62 | 1009.0 | ||||||
| 05 | 15:56 | NW 17 G 35 | 0.00 | NULL | NULL | 5.6 | -6.7 | 41% | 3 | 75.62 | 1008.8 | ||||||
| 05 | 14:56 | Calm | 0.00 | NULL | NULL | 4.4 | -6.7 | 45% | 75.59 | 1008.7 | |||||||
| 05 | 13:56 | W 11 | 0.00 | NULL | NULL | 2.8 | -6.7 | 50% | 0 | 75.59 | 1008.7 | ||||||
| 05 | 12:56 | Calm | 0.00 | NULL | NULL | 2.8 | -6.7 | 3.9 | 1.1 | 50% | 75.57 | 1008.4 | |||||
| 05 | 11:56 | N 15 G 30 | 0.00 | NULL | NULL | 2.8 | -6.7 | 50% | -1 | 75.54 | 1007.9 | ||||||
| 05 | 10:56 | Vrbl 9 G 31 | 0.00 | NULL | NULL | 3.3 | -7.2 | 46% | 1 | 75.49 | 1007.2 | ||||||
| 05 | 09:56 | Vrbl 6 | 0.00 | NULL | NULL | 2.2 | -7.2 | 50% | 75.44 | 1006.6 | |||||||
| 05 | 08:56 | Calm | 0.00 | NULL | NULL | 1.7 | -6.7 | 54% | 75.39 | 1005.8 | |||||||
| 05 | 07:56 | W 15 | 0.00 | NULL | NULL | 1.1 | -6.1 | 59% | -3 | 75.34 | 1005.1 | ||||||
| 05 | 06:56 | Vrbl 7 | 0.00 | NULL | NULL | 1.7 | -4.4 | 2.2 | 1.1 | 64% | -0 | 75.29 | 1004.3 | ||||
| 05 | 05:56 | NW 6 | 0.00 | NULL | NULL | 2.2 | -3.9 | 64% | 75.23 | 1003.5 | |||||||
| 05 | 04:56 | Calm | 0.00 | NULL | NULL | 2.2 | -3.3 | 67% | 75.16 | 1002.6 | |||||||
| 05 | 03:56 | W 9 | 0.00 | NULL | NULL | 1.7 | -2.2 | 76% | -1 | 75.16 | 1002.6 | ||||||
| 05 | 02:56 | W 9 | 0.00 | NULL | NULL | 1.7 | -2.2 | 76% | -1 | 75.13 | 1002.0 | ||||||
| 05 | 01:56 | W 7 | 0.00 | NULL | NULL | 1.7 | -1.1 | 82% | -0 | 75.11 | 1001.9 | ||||||
| 05 | 00:56 | W 7 | 0.00 | NULL | NULL | 2.2 | -1.7 | 8.9 | 2.2 | 76% | 0 | 75.11 | 1001.8 | ||||
| 04 | 23:56 | W 19 | 0.00 | NULL | NULL | 2.8 | -1.7 | 73% | -1 | 75.08 | 1001.3 | ||||||
| 04 | 22:56 | Calm | 0.00 | NULL | NULL | 3.9 | -3.3 | 60% | 75.03 | 1000.7 | |||||||
| 04 | 20:56 | Vrbl 9 G 35 | 0.00 | NULL | NULL | 5 | -1.1 | 65% | 3 | 74.93 | 999.4 | ||||||
| 04 | 19:56 | N 15 | 0.00 | NULL | NULL | 7.2 | -1.7 | 54% | 5 | 74.88 | 998.7 | ||||||
| 04 | 18:56 | W 24 G 44 | 0.00 | NULL | NULL | 8.9 | -3.9 | 12.2 | 8.9 | 41% | 6 | 74.75 | 996.8 | ||||
| 04 | 17:56 | NW 15 G 65 | 0.00 | NULL | NULL | 10 | -3.3 | 39% | 8 | 74.73 | 996.6 | ||||||
| 04 | 16:56 | NW 24 G 44 | 0.00 | NULL | NULL | 10.6 | -2.8 | 39% | 74.68 | 995.8 | |||||||
| 04 | 15:56 | W 19 G 43 | 0.00 | NULL | NULL | 10 | 0.6 | 52% | 8 | 74.6 | 994.9 | ||||||
| 04 | 14:56 | Vrbl 9 G 50 | 0.00 | NULL | NULL | 12.2 | 0.6 | 45% | 74.52 | 993.8 | |||||||
| 04 | 13:56 | NW 13 G 37 | 0.00 | NULL | NULL | 12.2 | 0.6 | 45% | 74.5 | 993.4 | |||||||
| 04 | 12:56 | NW 20 G 50 | 0.00 | NULL | NULL | 11.7 | 0.6 | 12.2 | 5 | 47% | 74.42 | 992.3 | 0.08 | ||||
| 04 | 11:56 | NW 22 G 59 | 0.00 | NULL | NULL | 10.6 | 1.7 | 54% | 74.35 | 991.5 | |||||||
| 04 | 10:56 | Vrbl 11 G 44 | 0.00 | NULL | NULL | 9.4 | 5.6 | 77% | 8 | 74.27 | 990.6 | 0.05 | |||||
| 04 | 09:56 | NW 17 G 52 | 0.00 | NULL | NULL | 8.9 | 6.1 | 83% | 7 | 74.24 | 990.0 | 0.03 | 0.03 | ||||
| 04 | 08:56 | W 15 G 30 | 0.00 | NULL | NULL | 10 | 4.4 | 68% | 8 | 74.17 | 989.2 | ||||||
| 04 | 07:56 | W 22 G 39 | 0.00 | NULL | NULL | 5.6 | 2.8 | 82% | 2 | 74.17 | 989.1 | ||||||
| 04 | 06:56 | NW 24 G 59 | 0.00 | NULL | NULL | 10.6 | 3.9 | 12.2 | 3.9 | 64% | 74.07 | 987.3 | |||||
| 04 | 05:56 | NW 11 | 0.00 | NULL | NULL | 4.4 | 0.6 | 77% | 2 | 74.07 | 987.5 | ||||||
| 04 | 04:56 | W 7 | 0.00 | NULL | NULL | 6.1 | 0 | 65% | 5 | 74.12 | 988.1 | ||||||
| 04 | 03:56 | Calm | 0.00 | NULL | NULL | 6.1 | 0.6 | 68% | 74.22 | 989.4 | |||||||
| 04 | 02:56 | Calm | 0.00 | NULL | NULL | 5.6 | -0.6 | 65% | 74.35 | 991.1 | |||||||
| 04 | 01:56 | Calm | 0.00 | NULL | NULL | 5.6 | 0 | 68% | 74.47 | 992.9 | |||||||
| 04 | 00:56 | Calm | 0.00 | NULL | NULL | 5.6 | 0 | 16.1 | 3.9 | 68% | 74.6 | 994.6 | |||||
| 03 | 23:56 | Calm | 0.00 | NULL | NULL | 5.6 | 0 | 68% | 74.7 | 996.1 | |||||||
| 03 | 22:56 | Calm | 0.00 | NULL | NULL | 3.9 | 0 | 76% | 74.8 | 997.8 | |||||||
| 03 | 21:56 | Calm | 0.00 | NULL | NULL | 5.6 | -1.1 | 62% | 74.88 | 999.1 | |||||||
| 03 | 20:56 | W 9 | 0.00 | NULL | NULL | 5.6 | -0.6 | 65% | 4 | 74.98 | 1000.2 | ||||||
| 03 | 19:56 | W 11 G 30 | 0.00 | NULL | NULL | 8.3 | -2.2 | 48% | 7 | 75.03 | 1000.7 | ||||||
| 03 | 18:56 | Vrbl 7 | 0.00 | NULL | NULL | 16.7 | -4.4 | 19.4 | 15 | 23% | 75.01 | 1000.4 | |||||
| 03 | 17:56 | NW 15 G 44 | 0.00 | NULL | NULL | 17.2 | -6.1 | 20% | 75.06 | 1000.9 | |||||||
| 03 | 16:56 | N 15 G 37 | 0.00 | NULL | NULL | 18.3 | -6.7 | 18% | 75.06 | 1000.7 | |||||||
| 03 | 15:56 | NW 19 G 37 | 0.00 | NULL | NULL | 17.8 | -6.7 | 18% | 75.06 | 1000.7 | |||||||
| 03 | 14:56 | Vrbl 11 G 46 | 0.00 | NULL | NULL | 18.3 | -10.6 | 13% | 75.08 | 1001.1 | |||||||
| 03 | 13:56 | NW 13 G 33 | 0.00 | NULL | NULL | 17.8 | -6.7 | 18% | 75.11 | 1001.3 | |||||||
| 03 | 12:56 | Calm | 0.00 | NULL | NULL | 18.3 | -7.8 | 18.3 | 1.1 | 16% | 75.13 | 1001.7 | |||||
| 03 | 11:56 | W 15 G 30 | 0.00 | NULL | NULL | 17.8 | 0 | 30% | 75.13 | 1001.8 | |||||||
| 03 | 10:56 | W 20 | 0.00 | NULL | NULL | 5 | 0 | 70% | 1 | 75.16 | 1002.8 | ||||||
| 03 | 09:56 | W 15 | 0.00 | NULL | NULL | 4.4 | -2.2 | 63% | 1 | 75.18 | 1003.2 | ||||||
| 03 | 08:56 | W 13 | 0.00 | NULL | NULL | 4.4 | -2.2 | 63% | 2 | 75.26 | 1004.0 | ||||||
| 03 | 07:56 | Calm | 0.00 | NULL | NULL | 2.8 | -1.7 | 73% | 75.26 | 1004.2 | |||||||
| 03 | 06:56 | Calm | 0.00 | NULL | NULL | 2.2 | -1.7 | 5 | 0.6 | 76% | 75.29 | 1004.4 | |||||
| 03 | 05:56 | Calm | 0.00 | NULL | NULL | 0.6 | -3.3 | 75% | 75.31 | 1004.9 | |||||||
| 03 | 04:56 | Calm | 0.00 | NULL | NULL | 1.1 | -1.7 | 82% | 75.36 | 1005.6 | |||||||
| 03 | 03:56 | Calm | 0.00 | NULL | NULL | 2.2 | -1.1 | 79% | 75.41 | 1006.1 | |||||||
| 03 | 02:56 | Calm | 0.00 | NULL | NULL | 2.8 | -1.1 | 76% | 75.41 | 1006.3 | |||||||
| 03 | 01:56 | Calm | 0.00 | NULL | NULL | 4.4 | 0.6 | 77% | 75.46 | 1006.7 | |||||||
| 03 | 00:56 | Calm | 0.00 | NULL | NULL | 4.4 | 0 | 6.1 | 2.8 | 73% | 75.51 | 1007.4 | |||||
| 02 | 23:56 | E 6 | 0.00 | NULL | NULL | 5 | 0 | 70% | 75.51 | 1007.5 | |||||||
| 02 | 22:56 | Calm | 0.00 | NULL | NULL | 3.9 | 0 | 76% | 75.59 | 1008.6 | |||||||
| 02 | 21:56 | NE 6 | 0.00 | NULL | NULL | 3.3 | -0.6 | 76% | 75.64 | 1009.2 | |||||||
| 02 | 20:56 | E 6 | 0.00 | NULL | NULL | 3.3 | -0.6 | 76% | 75.67 | 1009.7 | |||||||
| 02 | 19:56 | Calm | 0.00 | NULL | NULL | 3.3 | -1.1 | 73% | 75.69 | 1010.2 | |||||||
| 02 | 18:56 | Calm | 0.00 | NULL | NULL | 5 | -2.8 | 6.1 | 1.7 | 57% | 75.74 | 1010.8 | |||||
| 02 | 17:56 | Calm | 0.00 | NULL | NULL | 5.6 | -3.3 | 53% | 75.79 | 1011.4 | |||||||
| Date | Time (cdt) | Wind (kph) | Vis. (km) | Weather | Sky Cond. | Air | Dwpt | Max. | Min. | Relative Humidity | Wind Chill (°C) | Heat Index (°C) | altimeter (cm) | sea level (mb) | 1 hr | 3 hr | 6 hr |
| 6 hour | |||||||||||||||||
| Temperature (ºC) | Pressure | Precipitation (cm) | |||||||||||||||